createdAt,value
2022-12-24T00:03:00.226Z,19.73
2022-12-24T00:08:02.849Z,20.17
2022-12-24T00:13:05.402Z,21.17
2022-12-24T00:18:07.959Z,20.80
2022-12-24T00:23:10.649Z,17.37
2022-12-24T00:28:14.044Z,17.87
2022-12-24T00:33:22.460Z,20.60
2022-12-24T00:38:26.908Z,19.80
2022-12-24T00:43:30.581Z,17.80
2022-12-24T00:48:33.157Z,15.37
2022-12-24T00:53:35.635Z,21.07
2022-12-24T00:58:38.247Z,17.20
2022-12-24T01:03:41.003Z,23.63
2022-12-24T01:08:43.848Z,19.00
2022-12-24T01:13:46.312Z,17.57
2022-12-24T01:18:49.202Z,20.30
2022-12-24T01:23:53.050Z,16.93
2022-12-24T01:28:57.515Z,19.50
2022-12-24T01:34:00.020Z,14.60
2022-12-24T01:39:02.848Z,16.03
2022-12-24T01:44:22.383Z,14.07
2022-12-24T01:49:25.379Z,13.80
2022-12-24T01:54:44.632Z,14.33
2022-12-24T02:00:15.619Z,16.80
2022-12-24T02:05:31.172Z,14.07
2022-12-24T02:10:33.702Z,12.47
2022-12-24T02:15:49.024Z,15.97
2022-12-24T02:21:31.161Z,14.40
2022-12-24T02:26:58.051Z,12.90
2022-12-24T02:32:21.741Z,10.17
2022-12-24T02:37:38.290Z,15.57
2022-12-24T02:42:44.458Z,13.97
2022-12-24T02:47:49.019Z,11.47
2022-12-24T02:52:51.804Z,13.10
2022-12-24T02:58:06.288Z,16.20
2022-12-24T03:03:08.809Z,11.27
2022-12-24T03:08:50.706Z,11.53
2022-12-24T03:13:54.898Z,10.73
2022-12-24T03:19:00.145Z,12.77
2022-12-24T03:24:03.188Z,14.10
2022-12-24T03:29:07.698Z,18.40
2022-12-24T03:34:11.085Z,16.73
2022-12-24T03:39:14.293Z,18.30
2022-12-24T03:44:16.908Z,14.00
2022-12-24T03:49:19.503Z,11.47
2022-12-24T03:54:22.348Z,18.27
2022-12-24T03:59:24.782Z,11.33
2022-12-24T04:04:27.247Z,19.10
2022-12-24T04:09:29.852Z,16.83
2022-12-24T04:14:32.312Z,14.70
2022-12-24T04:19:35.161Z,17.37
2022-12-24T04:24:37.748Z,13.17
2022-12-24T04:29:40.298Z,16.20
2022-12-24T04:34:42.734Z,15.40
2022-12-24T04:39:45.202Z,13.83
2022-12-24T04:44:47.699Z,15.67
2022-12-24T04:49:50.773Z,16.67
2022-12-24T04:54:53.308Z,18.93
2022-12-24T04:59:55.915Z,17.73
2022-12-24T05:04:58.496Z,17.37
2022-12-24T05:10:01.009Z,13.53
2022-12-24T05:15:04.368Z,13.73
2022-12-24T05:20:07.560Z,10.80
2022-12-24T05:25:29.154Z,12.23
2022-12-24T05:30:31.721Z,11.97
2022-12-24T05:35:34.214Z,12.83
2022-12-24T05:40:36.643Z,11.57
2022-12-24T05:45:39.166Z,10.57
2022-12-24T05:50:41.806Z,12.70
2022-12-24T05:55:45.247Z,14.43
2022-12-24T06:00:47.698Z,12.50
2022-12-24T06:05:58.630Z,13.07
2022-12-24T06:11:05.869Z,12.00
2022-12-24T06:16:12.724Z,12.20
2022-12-24T06:21:15.767Z,16.37
2022-12-24T06:26:21.465Z,12.80
2022-12-24T06:31:24.431Z,13.10
2022-12-24T06:36:26.981Z,9.33
2022-12-24T06:41:29.478Z,11.63
2022-12-24T06:46:31.998Z,13.47
2022-12-24T06:51:34.585Z,9.33
2022-12-24T06:56:37.135Z,16.27
2022-12-24T07:01:39.648Z,13.03
2022-12-24T07:06:42.285Z,14.83
2022-12-24T07:11:44.751Z,15.20
2022-12-24T07:16:47.466Z,16.83
2022-12-24T07:21:50.359Z,13.47
2022-12-24T07:26:52.861Z,12.90
2022-12-24T07:31:55.807Z,17.00
2022-12-24T07:36:58.364Z,16.47
2022-12-24T07:42:01.181Z,17.63
2022-12-24T07:47:03.853Z,11.70
2022-12-24T07:52:06.441Z,15.97
2022-12-24T07:57:09.138Z,18.70
2022-12-24T08:02:17.975Z,15.60
2022-12-24T08:07:20.983Z,18.23
2022-12-24T08:12:24.587Z,15.03
2022-12-24T08:17:32.127Z,16.00
2022-12-24T08:22:35.226Z,18.87
2022-12-24T08:27:38.003Z,15.67
2022-12-24T08:32:40.700Z,13.13
2022-12-24T08:37:43.257Z,16.47
2022-12-24T08:42:45.768Z,16.47
2022-12-24T08:47:48.811Z,15.87
2022-12-24T08:52:51.707Z,13.47
2022-12-24T08:57:54.159Z,15.83
2022-12-24T09:02:57.429Z,13.53
2022-12-24T09:08:00.103Z,12.10
2022-12-24T09:13:02.690Z,14.07
2022-12-24T09:18:05.600Z,13.70
2022-12-24T09:23:08.173Z,12.00
2022-12-24T09:28:10.785Z,13.27
2022-12-24T09:33:13.303Z,13.57
2022-12-24T09:38:15.849Z,9.43
2022-12-24T09:43:27.355Z,17.00
2022-12-24T09:48:32.956Z,15.07
2022-12-24T09:53:38.508Z,12.17
2022-12-24T09:58:45.888Z,14.47
2022-12-24T10:03:48.693Z,11.33
2022-12-24T10:09:03.470Z,17.30
2022-12-24T10:14:11.856Z,17.87
2022-12-24T10:19:37.316Z,18.67
2022-12-24T10:24:50.541Z,16.27
2022-12-24T10:30:00.532Z,17.73
2022-12-24T10:35:15.412Z,17.10
2022-12-24T10:40:24.436Z,18.03
2022-12-24T10:45:39.853Z,13.20
2022-12-24T10:51:04.377Z,21.10
2022-12-24T10:56:10.441Z,18.67
2022-12-24T11:01:13.866Z,11.20
2022-12-24T11:06:22.785Z,17.67
2022-12-24T11:11:25.377Z,19.80
2022-12-24T11:16:33.753Z,20.90
2022-12-24T11:21:40.159Z,16.03
2022-12-24T11:26:44.657Z,18.43
2022-12-24T11:31:48.358Z,17.37
2022-12-24T11:36:53.223Z,18.03
2022-12-24T11:41:55.827Z,18.17
2022-12-24T11:46:58.529Z,17.50
2022-12-24T11:52:10.334Z,18.30
2022-12-24T11:57:15.153Z,16.10
2022-12-24T12:02:26.897Z,17.20
2022-12-24T12:07:33.956Z,21.07
2022-12-24T12:13:01.432Z,17.17
2022-12-24T12:18:15.372Z,17.43
2022-12-24T12:23:24.926Z,19.00
2022-12-24T12:28:32.458Z,16.87
2022-12-24T12:33:55.452Z,19.17
2022-12-24T12:38:58.104Z,18.93
2022-12-24T12:44:06.742Z,23.63
2022-12-24T12:49:27.157Z,20.13
2022-12-24T12:54:42.183Z,19.00
2022-12-24T12:59:55.133Z,20.67
2022-12-24T13:05:25.434Z,20.40
2022-12-24T13:11:02.662Z,21.83
2022-12-24T13:16:40.023Z,21.30
2022-12-24T13:21:45.505Z,21.37
2022-12-24T13:27:07.890Z,19.47
2022-12-24T13:32:22.282Z,19.00
2022-12-24T13:37:37.024Z,26.50
2022-12-24T13:42:58.129Z,30.27
2022-12-24T13:48:06.622Z,27.77
2022-12-24T13:53:35.481Z,30.37
2022-12-24T13:58:44.365Z,37.23
2022-12-24T14:03:57.980Z,31.70
2022-12-24T14:09:17.212Z,36.23
2022-12-24T14:14:40.721Z,33.83
2022-12-24T14:19:44.302Z,27.93
2022-12-24T14:25:09.717Z,24.73
2022-12-24T14:30:28.161Z,28.77
2022-12-24T14:35:39.799Z,26.03
2022-12-24T14:41:09.145Z,34.83
2022-12-24T14:46:33.743Z,33.83
2022-12-24T14:51:56.283Z,30.77
2022-12-24T14:57:11.332Z,35.23
2022-12-24T15:02:49.253Z,19.67
2022-12-24T15:24:47.520Z,25.17
2022-12-24T15:29:53.796Z,29.33
2022-12-24T15:34:56.353Z,27.77
2022-12-24T15:40:02.843Z,25.57
2022-12-24T15:45:07.975Z,28.53
2022-12-24T15:50:27.219Z,27.77
2022-12-24T15:55:44.123Z,27.73
2022-12-24T16:01:02.023Z,24.67
2022-12-24T16:06:11.314Z,26.00
2022-12-24T16:11:26.279Z,25.97
2022-12-24T16:16:46.591Z,31.13
2022-12-24T16:21:54.372Z,29.73
2022-12-24T16:26:57.904Z,30.73
2022-12-24T16:32:00.830Z,38.57
2022-12-24T16:37:04.136Z,26.70
2022-12-24T16:42:25.132Z,25.40
2022-12-24T16:47:33.817Z,27.83
2022-12-24T16:52:39.858Z,27.27
2022-12-24T16:57:43.924Z,26.63
2022-12-24T17:02:47.826Z,29.63
2022-12-24T17:07:51.139Z,32.20
2022-12-24T17:12:54.012Z,32.40
2022-12-24T17:17:56.687Z,34.17
2022-12-24T17:22:59.268Z,24.23
2022-12-24T17:28:01.757Z,31.40
2022-12-24T17:33:06.987Z,21.37
2022-12-24T17:38:13.494Z,31.50
2022-12-24T17:43:16.165Z,29.83
2022-12-24T17:48:18.690Z,30.17
2022-12-24T17:53:21.288Z,32.20
2022-12-24T17:58:26.249Z,35.83
2022-12-24T18:03:29.178Z,41.40
2022-12-24T18:08:32.249Z,39.87
2022-12-24T18:13:35.131Z,35.10
2022-12-24T18:18:37.692Z,34.47
2022-12-24T18:23:43.407Z,35.10
2022-12-24T18:28:49.396Z,31.90
2022-12-24T18:33:53.185Z,36.57
2022-12-24T18:38:56.006Z,36.23
2022-12-24T18:43:59.727Z,36.97
2022-12-24T18:49:02.583Z,35.13
2022-12-24T18:54:06.588Z,36.50
2022-12-24T18:59:10.145Z,35.90
2022-12-24T19:04:15.052Z,33.13
2022-12-24T19:09:17.687Z,40.80
2022-12-24T19:14:20.523Z,34.80
2022-12-24T19:19:24.226Z,39.33
2022-12-24T19:24:26.698Z,32.93
2022-12-24T19:29:31.539Z,36.03
2022-12-24T19:34:34.143Z,35.40
2022-12-24T19:39:36.832Z,35.33
2022-12-24T19:44:39.422Z,34.97
2022-12-24T19:49:41.939Z,37.27
2022-12-24T19:54:44.407Z,35.97
2022-12-24T19:59:46.944Z,33.77
2022-12-24T20:04:50.928Z,26.57
2022-12-24T20:09:53.473Z,34.13
2022-12-24T20:14:56.927Z,35.07
2022-12-24T20:19:59.597Z,34.90
2022-12-24T20:25:02.189Z,37.20
2022-12-24T20:30:05.427Z,37.10
2022-12-24T20:35:08.426Z,39.27
2022-12-24T20:40:11.207Z,36.80
2022-12-24T20:45:15.832Z,36.77
2022-12-24T20:50:18.876Z,34.33
2022-12-24T20:55:21.700Z,37.97
2022-12-24T21:00:25.203Z,39.97
2022-12-24T21:05:27.849Z,39.50
2022-12-24T21:10:34.190Z,38.90
2022-12-24T21:15:40.099Z,40.50
2022-12-24T21:20:43.509Z,42.43
2022-12-24T21:25:46.068Z,40.83
2022-12-24T21:30:48.598Z,42.47
2022-12-24T21:37:01.581Z,43.03
2022-12-24T21:42:06.927Z,42.10
2022-12-24T21:47:11.077Z,42.27
2022-12-24T21:52:16.628Z,44.13
2022-12-24T21:57:37.648Z,40.63
2022-12-24T22:02:40.513Z,36.23
2022-12-24T22:08:01.916Z,50.50
2022-12-24T22:13:07.437Z,46.10
2022-12-24T22:18:10.039Z,49.10
2022-12-24T22:23:13.707Z,51.37
2022-12-24T22:28:16.355Z,56.40
2022-12-24T22:33:18.989Z,58.10
2022-12-24T22:38:21.746Z,52.20
2022-12-24T22:43:24.450Z,52.37
2022-12-24T22:48:27.219Z,48.43
2022-12-24T22:53:29.732Z,53.60
2022-12-24T22:58:32.320Z,45.87
2022-12-24T23:03:35.105Z,47.90
2022-12-24T23:08:38.224Z,40.23
2022-12-24T23:14:02.017Z,47.60
2022-12-24T23:19:05.954Z,42.43
2022-12-24T23:24:11.150Z,38.50
2022-12-24T23:29:13.809Z,40.17
2022-12-24T23:34:16.952Z,40.40
2022-12-24T23:39:19.738Z,44.20
2022-12-24T23:44:26.704Z,42.10
2022-12-24T23:49:32.787Z,41.03
2022-12-24T23:54:35.339Z,45.00
2022-12-24T23:59:37.904Z,29.27
